Norman Park, GA (31771)

5:00 AM EST on February 25, 2017 (GMT -0500)
City of Moultrie Service Center | | Change Station

Elev 299 ft 31.19 °N, 83.79 °W | Updated 10 minutes ago

Mostly Cloudy
Mostly Cloudy
60.8 °F
Feels Like 60.8 °F
N
0.0
Wind Variable Wind from SW
Gusts 0.0 mph

Today
High -- | Low -- °F
--% Chance of Precip.
Yesterday
High -- | Low -- °F
Precip. -- in
Pressure 29.85 in
Visibility 7.0 miles
Clouds Mostly Cloudy 4500 ft
Dew Point 59 °F
Humidity 94%
Rainfall 0.00 in
Snow Depth Not available.
7:05 AM 6:30 PM
Waning Crescent, 2% visible
METAR KMGR 250955Z AUTO 00000KT 7SM BKN045 15/15 A2985 RMK AO2
Pressure 29.85 in
Visibility 7.0 miles
Clouds Mostly Cloudy 4500 ft
Dew Point 59 °F
Humidity 94%
Rainfall 0.00 in
Snow Depth Not available.
7:05 AM 6:30 PM
Waning Crescent, 2% visible
METAR KMGR 250955Z AUTO 00000KT 7SM BKN045 15/15 A2985 RMK AO2

Get Your Daily Forecast Email!

Thanks for signing up!

Be on the lookout for a verification email in your inbox.

You'll start receiving the daily forecast at 8 AM.

×

10-Day Weather Forecast

Almanac

Astronomy

Feb. 25, 2017 Rise Set
Actual Time
Civil Twilight
Nautical Twilight
Astronomical Twilight
Moon
Length of Visible Light
Length of Day
Tomorrow will be .
, % of the Moon is Illuminated

Today's Extremes

State Highs State Lows

Community

WunderPhotos

Upload Photos

1,962,540 photos uploaded!

WunderBlog® & News

Nearby

Air Quality

  Air Quality AQ Index Pollutant
Not available.

Snow Depth

Station Depth Elevation

Earthquake Activity

City Distance Mag. Time & Date
Minimum magnitude displayed is 2.5.

Coastal Water Temperatures

Place Temperature

Stations

Nearby Weather Stations

Station Location Temp. Windchill Dew Point Humidity Wind Precip. Elev Updated Type
                   

Watches & Warnings

There are currently no watches in effect.